Terminal Aerodrome Forecast
Issued by NWS Blacksburg, VA

Home | Current Version | Previous Version | Text Only | Print | Product List | Glossary On
Versions: 1 2 3 4 5 6 7 8 9 10 11 12 13 14 15 16 17 18 19 20 21 22 23
000
FTUS41 KRNK 252335
TAFBLF
TAF
KBLF 252335Z 2600/2624 16007KT P6SM BKN070 BKN250
     FM260900 17007KT P6SM VCSH SCT025 BKN040
     FM261500 19010G20KT P6SM VCTS SCT030 BKN040CB OVC150 PROB30
      2618/2622 3SM TSRA BKN025CB=

USA.gov is the U.S. government's official web portal to all federal, state and local government web resources and services.